createdAt,value
2018-02-21T00:02:04.694Z,94650.80
2018-02-21T00:04:31.269Z,94646.01
2018-02-21T00:06:57.837Z,94642.05
2018-02-21T00:09:24.559Z,94637.70
2018-02-21T00:11:51.140Z,94639.77
2018-02-21T00:14:17.677Z,94636.24
2018-02-21T00:16:44.291Z,94634.69
2018-02-21T00:19:10.920Z,94634.00
2018-02-21T00:21:37.457Z,94637.42
2018-02-21T00:24:04.018Z,94640.88
2018-02-21T00:26:30.577Z,94644.52
2018-02-21T00:28:57.132Z,94649.63
2018-02-21T00:31:23.707Z,94641.95
2018-02-21T00:33:50.271Z,94637.76
2018-02-21T00:36:16.865Z,94649.39
2018-02-21T00:38:43.454Z,94641.75
2018-02-21T00:41:10.056Z,94637.73
2018-02-21T00:43:36.623Z,94633.73
2018-02-21T00:46:03.243Z,94627.52
2018-02-21T00:48:29.814Z,94630.84
2018-02-21T00:50:56.399Z,94639.00
2018-02-21T00:53:22.966Z,94636.03
2018-02-21T00:55:49.525Z,94630.27
2018-02-21T00:58:16.090Z,94621.03
2018-02-21T01:00:42.665Z,94622.38
2018-02-21T01:03:09.256Z,94627.05
2018-02-21T01:05:35.951Z,94635.63
2018-02-21T01:08:02.528Z,94640.02
2018-02-21T01:10:29.113Z,94635.63
2018-02-21T01:12:55.677Z,94630.27
2018-02-21T01:15:22.262Z,94636.69
2018-02-21T01:17:48.876Z,94630.92
2018-02-21T01:20:15.468Z,94629.44
2018-02-21T01:22:42.108Z,94626.47
2018-02-21T01:25:08.675Z,94629.30
2018-02-21T01:27:35.250Z,94631.84
2018-02-21T01:30:03.034Z,94623.53
2018-02-21T01:32:29.703Z,94632.12
2018-02-21T01:34:56.259Z,94635.78
2018-02-21T01:37:22.917Z,94634.39
2018-02-21T01:39:49.513Z,94637.42
2018-02-21T01:42:16.149Z,94630.38
2018-02-21T01:44:42.746Z,94636.30
2018-02-21T01:47:09.326Z,94639.45
2018-02-21T01:49:35.927Z,94640.27
2018-02-21T01:52:02.508Z,94634.86
2018-02-21T01:54:29.090Z,94639.11
2018-02-21T01:56:55.743Z,94640.13
2018-02-21T01:59:22.335Z,94644.63
2018-02-21T02:01:48.908Z,94632.86
2018-02-21T02:04:15.504Z,94635.25
2018-02-21T02:06:42.136Z,94631.20
2018-02-21T02:09:08.770Z,94625.19
2018-02-21T02:11:35.378Z,94633.05
2018-02-21T02:14:01.989Z,94628.63
2018-02-21T02:16:28.690Z,94627.00
2018-02-21T02:18:55.261Z,94621.09
2018-02-21T02:21:21.844Z,94614.25
2018-02-21T02:23:48.425Z,94613.31
2018-02-21T02:26:15.085Z,94609.55
2018-02-21T02:28:41.719Z,94614.36
2018-02-21T02:31:08.337Z,94609.29
2018-02-21T02:33:35.015Z,94609.40
2018-02-21T02:36:01.578Z,94610.31
2018-02-21T02:38:28.147Z,94609.91
2018-02-21T02:40:54.725Z,94607.12
2018-02-21T02:43:21.281Z,94609.77
2018-02-21T02:45:47.881Z,94600.78
2018-02-21T02:48:14.483Z,94604.41
2018-02-21T02:50:41.205Z,94610.45
2018-02-21T02:53:07.763Z,94612.98
2018-02-21T02:55:34.338Z,94613.84
2018-02-21T02:58:00.899Z,94611.37
2018-02-21T03:00:27.462Z,94618.87
2018-02-21T03:02:54.133Z,94611.31
2018-02-21T03:05:20.748Z,94608.00
2018-02-21T03:07:47.341Z,94604.78
2018-02-21T03:10:14.007Z,94601.27
2018-02-21T03:12:40.590Z,94598.70
2018-02-21T03:15:07.157Z,94602.86
2018-02-21T03:17:33.724Z,94605.66
2018-02-21T03:20:00.285Z,94591.30
2018-02-21T03:22:26.849Z,94588.52
2018-02-21T03:24:53.408Z,94582.19
2018-02-21T03:27:20.053Z,94584.32
2018-02-21T03:29:46.615Z,94579.64
2018-02-21T03:32:13.215Z,94585.48
2018-02-21T03:34:39.822Z,94579.33
2018-02-21T03:37:06.482Z,94574.11
2018-02-21T03:39:33.037Z,94567.95
2018-02-21T03:41:59.595Z,94574.11
2018-02-21T03:44:26.176Z,94568.89
2018-02-21T03:46:52.737Z,94576.64
2018-02-21T03:49:19.362Z,94576.67
2018-02-21T03:51:45.927Z,94573.38
2018-02-21T03:54:12.562Z,94576.51
2018-02-21T03:56:39.205Z,94569.16
2018-02-21T03:59:05.774Z,94565.36
2018-02-21T04:01:32.389Z,94566.63
2018-02-21T04:03:59.003Z,94567.61
2018-02-21T04:06:25.624Z,94568.30
2018-02-21T04:08:52.242Z,94566.39
2018-02-21T04:11:18.803Z,94561.32
2018-02-21T04:13:45.416Z,94565.00
2018-02-21T04:16:11.981Z,94551.43
2018-02-21T04:18:38.554Z,94556.05
2018-02-21T04:21:05.210Z,94555.93
2018-02-21T04:23:31.822Z,94563.67
2018-02-21T04:25:58.397Z,94537.20
2018-02-21T04:28:24.961Z,94538.31
2018-02-21T04:30:51.635Z,94569.62
2018-02-21T04:33:18.241Z,94565.59
2018-02-21T04:35:44.823Z,94557.13
2018-02-21T04:38:11.458Z,94532.70
2018-02-21T04:40:38.183Z,94544.14
2018-02-21T04:43:04.788Z,94550.89
2018-02-21T04:45:31.436Z,94554.16
2018-02-21T04:47:58.154Z,94558.23
2018-02-21T04:50:24.626Z,94552.95
2018-02-21T04:52:51.202Z,94554.11
2018-02-21T04:55:17.845Z,94552.03
2018-02-21T04:57:44.416Z,94552.58
2018-02-21T05:00:11.095Z,94555.25
2018-02-21T05:02:37.800Z,94550.38
2018-02-21T05:05:04.412Z,94545.02
2018-02-21T05:07:31.089Z,94544.12
2018-02-21T05:09:57.680Z,94542.01
2018-02-21T05:12:24.283Z,94541.47
2018-02-21T05:14:50.836Z,94529.52
2018-02-21T05:17:17.419Z,94542.00
2018-02-21T05:19:44.021Z,94536.53
2018-02-21T05:22:10.583Z,94545.26
2018-02-21T05:24:37.232Z,94544.25
2018-02-21T05:27:03.807Z,94548.34
2018-02-21T05:29:30.385Z,94570.57
2018-02-21T05:31:57.005Z,94570.75
2018-02-21T05:34:23.574Z,94580.64
2018-02-21T05:36:50.138Z,94584.77
2018-02-21T05:39:16.714Z,94579.70
2018-02-21T05:41:43.384Z,94582.34
2018-02-21T05:44:10.024Z,94582.20
2018-02-21T05:46:36.593Z,94586.62
2018-02-21T05:49:03.208Z,94579.66
2018-02-21T05:51:29.857Z,94586.88
2018-02-21T05:53:56.464Z,94574.53
2018-02-21T05:56:23.114Z,94578.23
2018-02-21T05:58:49.686Z,94578.77
2018-02-21T06:01:16.259Z,94574.17
2018-02-21T06:03:42.897Z,94567.37
2018-02-21T06:06:09.524Z,94566.67
2018-02-21T06:08:36.083Z,94570.80
2018-02-21T06:11:02.714Z,94566.55
2018-02-21T06:13:29.292Z,94565.75
2018-02-21T06:15:57.807Z,94566.55
2018-02-21T07:59:56.589Z,94595.32
2018-02-21T08:02:33.217Z,94598.95
2018-02-21T08:05:05.861Z,94607.94
2018-02-21T08:07:32.441Z,94602.34
2018-02-21T08:09:59.144Z,94601.17
2018-02-21T08:12:25.936Z,94603.97
2018-02-21T08:14:52.638Z,94602.20
2018-02-21T08:17:19.219Z,94609.17
2018-02-21T08:19:45.838Z,94616.68
2018-02-21T08:22:12.412Z,94621.55
2018-02-21T08:24:39.262Z,94612.78
2018-02-21T08:27:05.834Z,94613.68
2018-02-21T08:29:32.460Z,94621.52
2018-02-21T08:31:59.058Z,94622.52
2018-02-21T08:34:25.637Z,94626.64
2018-02-21T08:36:52.308Z,94620.77
2018-02-21T08:39:18.900Z,94628.23
2018-02-21T08:41:45.495Z,94616.62
2018-02-21T08:44:12.073Z,94617.02
2018-02-21T08:46:38.653Z,94623.85
2018-02-21T08:49:05.259Z,94622.28
2018-02-21T08:51:31.948Z,94625.53
2018-02-21T08:53:58.560Z,94624.98
2018-02-21T08:56:25.285Z,94628.58
2018-02-21T08:58:51.961Z,94626.94
2018-02-21T09:01:18.535Z,94625.88
2018-02-21T09:03:45.210Z,94630.26
2018-02-21T09:06:11.796Z,94631.80
2018-02-21T09:08:38.380Z,94628.28
2018-02-21T09:11:04.977Z,94635.63
2018-02-21T09:13:31.882Z,94648.52
2018-02-21T09:15:58.470Z,94653.89
2018-02-21T09:18:25.176Z,94638.98
2018-02-21T09:20:51.797Z,94644.34
2018-02-21T09:23:18.517Z,94653.03
2018-02-21T09:25:45.150Z,94654.01
2018-02-21T09:28:11.846Z,94648.88
2018-02-21T09:30:39.524Z,94647.58
2018-02-21T09:33:06.175Z,94654.25
2018-02-21T09:35:32.807Z,94656.98
2018-02-21T09:37:59.484Z,94658.22
2018-02-21T09:40:26.132Z,94651.97
2018-02-21T09:42:52.792Z,94655.34
2018-02-21T09:45:19.403Z,94648.47
2018-02-21T09:47:46.040Z,94655.89
2018-02-21T09:50:12.740Z,94657.38
2018-02-21T09:52:39.357Z,94664.80
2018-02-21T09:55:06.005Z,94657.88
2018-02-21T09:57:32.722Z,94655.55
2018-02-21T09:59:59.347Z,94653.06
2018-02-21T10:02:25.952Z,94653.45
2018-02-21T10:04:52.568Z,94661.70
2018-02-21T10:07:19.250Z,94652.77
2018-02-21T10:09:45.941Z,94652.93
2018-02-21T10:12:12.961Z,94646.66
2018-02-21T10:14:39.961Z,94643.87
2018-02-21T10:17:06.551Z,94634.87
2018-02-21T10:19:33.166Z,94641.23
2018-02-21T10:21:59.828Z,94637.31
2018-02-21T10:24:26.472Z,94635.94
2018-02-21T10:26:53.061Z,94645.09
2018-02-21T10:29:19.685Z,94644.90
2018-02-21T10:31:46.328Z,94636.67
2018-02-21T10:34:13.018Z,94646.77
2018-02-21T10:36:39.620Z,94640.12
2018-02-21T10:39:06.264Z,94646.14
2018-02-21T10:41:32.961Z,94632.98
2018-02-21T10:43:59.667Z,94640.95
2018-02-21T10:46:26.255Z,94632.70
2018-02-21T10:48:52.951Z,94638.46
2018-02-21T10:51:19.548Z,94640.95
2018-02-21T10:53:46.217Z,94644.59
2018-02-21T10:56:13.214Z,94635.39
2018-02-21T10:58:39.803Z,94622.15
2018-02-21T11:01:06.428Z,94619.77
2018-02-21T11:03:33.111Z,94627.82
2018-02-21T11:05:59.790Z,94628.97
2018-02-21T11:08:26.357Z,94642.84
2018-02-21T11:10:52.998Z,94642.36
2018-02-21T11:13:19.609Z,94635.39
2018-02-21T11:15:46.336Z,94630.01
2018-02-21T11:18:13.044Z,94627.28
2018-02-21T11:20:39.715Z,94623.03
2018-02-21T11:23:06.306Z,94621.44
2018-02-21T11:25:32.898Z,94624.23
2018-02-21T11:27:59.621Z,94624.72
2018-02-21T11:30:26.353Z,94620.99
2018-02-21T11:32:52.929Z,94625.92
2018-02-21T11:35:19.569Z,94612.60
2018-02-21T11:37:46.214Z,94615.45
2018-02-21T11:40:12.801Z,94619.86
2018-02-21T11:42:39.467Z,94627.51
2018-02-21T11:45:06.205Z,94621.81
2018-02-21T11:47:32.835Z,94628.63
2018-02-21T11:49:59.494Z,94621.41
2018-02-21T11:52:26.196Z,94632.56
2018-02-21T11:54:52.833Z,94624.03
2018-02-21T11:57:19.582Z,94624.83
2018-02-21T11:59:46.191Z,94624.33
2018-02-21T12:02:13.006Z,94615.98
2018-02-21T12:04:39.602Z,94617.82
2018-02-21T12:07:06.180Z,94617.88
2018-02-21T12:09:32.799Z,94619.70
2018-02-21T12:11:59.384Z,94618.50
2018-02-21T12:14:25.959Z,94615.51
2018-02-21T12:16:52.535Z,94607.91
2018-02-21T12:19:19.131Z,94604.43
2018-02-21T12:21:45.809Z,94602.80
2018-02-21T12:24:13.451Z,94608.31
2018-02-21T12:26:40.066Z,94616.55
2018-02-21T12:29:06.699Z,94609.27
2018-02-21T12:31:33.358Z,94602.02
2018-02-21T12:34:00.028Z,94604.63
2018-02-21T12:36:26.635Z,94601.08
2018-02-21T12:38:53.287Z,94602.63
2018-02-21T12:41:19.953Z,94591.47
2018-02-21T12:43:49.422Z,94587.53
2018-02-21T12:46:16.073Z,94596.55
2018-02-21T12:48:42.674Z,94601.44
2018-02-21T12:51:09.300Z,94592.31
2018-02-21T12:53:35.886Z,94598.14
2018-02-21T12:56:03.047Z,94598.59
2018-02-21T12:58:29.627Z,94596.76
2018-02-21T13:00:56.369Z,94594.77
2018-02-21T13:03:22.947Z,94591.19
2018-02-21T13:05:49.697Z,94585.71
2018-02-21T13:08:16.384Z,94588.55
2018-02-21T13:10:42.972Z,94583.63
2018-02-21T13:13:09.586Z,94585.22
2018-02-21T13:15:36.282Z,94556.58
2018-02-21T13:18:02.898Z,94594.41
2018-02-21T13:20:30.647Z,94536.14
2018-02-21T13:22:57.460Z,94542.80
2018-02-21T13:25:24.137Z,94577.20
2018-02-21T13:27:50.752Z,94576.84
2018-02-21T13:30:17.492Z,94555.44
2018-02-21T13:32:44.036Z,94560.96
2018-02-21T13:35:10.768Z,94580.75
2018-02-21T13:37:37.459Z,94592.06
2018-02-21T13:40:04.075Z,94587.80
2018-02-21T13:42:30.855Z,94551.02
2018-02-21T13:44:57.426Z,94585.16
2018-02-21T13:47:24.146Z,94572.32
2018-02-21T13:49:50.802Z,94570.23
2018-02-21T13:52:17.423Z,94573.84
2018-02-21T13:54:43.993Z,94581.81
2018-02-21T13:57:10.972Z,94576.70
2018-02-21T13:59:37.624Z,94579.79
2018-02-21T14:02:04.259Z,94583.42
2018-02-21T14:04:30.900Z,94575.16
2018-02-21T14:06:57.526Z,94561.52
2018-02-21T14:09:24.191Z,94567.92
2018-02-21T14:11:51.667Z,94567.63
2018-02-21T14:14:18.230Z,94572.13
2018-02-21T14:16:44.860Z,94565.25
2018-02-21T14:19:11.534Z,94569.58
2018-02-21T14:21:38.130Z,94572.29
2018-02-21T14:24:04.760Z,94563.56
2018-02-21T14:26:31.438Z,94562.87
2018-02-21T14:28:58.110Z,94559.00
2018-02-21T14:31:25.828Z,94555.16
2018-02-21T14:33:52.429Z,94550.17
2018-02-21T14:36:19.035Z,94563.28
2018-02-21T14:38:45.626Z,94566.34
2018-02-21T14:41:12.306Z,94564.56
2018-02-21T14:43:41.386Z,94570.20
2018-02-21T14:46:09.367Z,94565.98
2018-02-21T14:48:35.988Z,94574.97
2018-02-21T14:51:02.577Z,94569.60
2018-02-21T14:53:29.201Z,94561.26
2018-02-21T14:55:55.789Z,94564.19
2018-02-21T14:58:22.372Z,94562.20
2018-02-21T15:00:49.340Z,94565.92
2018-02-21T15:03:16.005Z,94567.02
2018-02-21T15:05:42.584Z,94570.06
2018-02-21T15:08:09.451Z,94563.64
2018-02-21T15:10:36.033Z,94568.08
2018-02-21T15:13:02.628Z,94571.50
2018-02-21T15:15:29.211Z,94581.45
2018-02-21T15:17:55.823Z,94583.30
2018-02-21T15:20:22.481Z,94585.59
2018-02-21T15:22:49.068Z,94586.78
2018-02-21T15:25:15.641Z,94592.25
2018-02-21T15:27:42.337Z,94593.39
2018-02-21T15:30:08.945Z,94596.73
2018-02-21T15:32:35.516Z,94594.89
2018-02-21T15:35:02.094Z,94592.90
2018-02-21T15:37:28.664Z,94589.30
2018-02-21T15:39:55.228Z,94605.53
2018-02-21T15:42:21.846Z,94611.60
2018-02-21T15:44:48.524Z,94603.78
2018-02-21T15:47:15.104Z,94608.91
2018-02-21T15:49:41.993Z,94615.17
2018-02-21T15:52:08.691Z,94606.42
2018-02-21T15:54:35.344Z,94605.06
2018-02-21T15:57:01.925Z,94607.34
2018-02-21T15:59:28.560Z,94606.25
2018-02-21T16:01:55.126Z,94599.79
2018-02-21T16:04:21.745Z,94602.16
2018-02-21T16:06:50.816Z,94604.11
2018-02-21T16:22:54.812Z,94599.73
2018-02-21T16:25:21.736Z,94602.35
2018-02-21T16:27:48.328Z,94604.49
2018-02-21T16:30:15.275Z,94609.48
2018-02-21T16:32:41.954Z,94610.27
2018-02-21T16:35:08.612Z,94601.25
2018-02-21T16:37:35.240Z,94610.55
2018-02-21T16:40:01.877Z,94608.66
2018-02-21T16:42:28.467Z,94574.42
2018-02-21T16:44:55.100Z,94595.36
2018-02-21T16:47:21.738Z,94606.91
2018-02-21T16:49:48.375Z,94616.16
2018-02-21T16:52:14.954Z,94609.77
2018-02-21T16:54:41.584Z,94602.03
2018-02-21T16:57:08.172Z,94619.33
2018-02-21T16:59:34.802Z,94613.96
2018-02-21T17:02:01.453Z,94616.89
2018-02-21T17:04:28.064Z,94621.17
2018-02-21T17:06:54.633Z,94617.73
2018-02-21T17:09:21.217Z,94614.95
2018-02-21T17:11:47.785Z,94614.55
2018-02-21T17:14:14.366Z,94622.70
2018-02-21T17:16:40.986Z,94622.03
2018-02-21T17:19:07.546Z,94624.41
2018-02-21T17:21:34.159Z,94622.06
2018-02-21T17:24:00.829Z,94626.38
2018-02-21T17:26:27.459Z,94628.66
2018-02-21T17:28:54.065Z,94627.47
2018-02-21T17:31:20.686Z,94626.96
2018-02-21T17:33:47.257Z,94630.27
2018-02-21T17:36:13.811Z,94625.88
2018-02-21T17:38:40.388Z,94627.87
2018-02-21T17:41:06.948Z,94626.56
2018-02-21T17:43:33.512Z,94624.53
2018-02-21T17:46:00.107Z,94616.53
2018-02-21T17:48:26.695Z,94615.47
2018-02-21T17:50:53.253Z,94616.67
2018-02-21T17:53:19.884Z,94623.02
2018-02-21T17:55:46.453Z,94623.47
2018-02-21T17:58:13.111Z,94625.51
2018-02-21T18:00:39.688Z,94624.38
2018-02-21T18:03:06.279Z,94622.23
2018-02-21T18:05:32.844Z,94620.48
2018-02-21T18:07:59.445Z,94623.15
2018-02-21T18:10:26.012Z,94620.64
2018-02-21T18:12:52.616Z,94624.64
2018-02-21T18:15:19.208Z,94627.86
2018-02-21T18:17:45.779Z,94634.83
2018-02-21T18:20:12.376Z,94638.70
2018-02-21T18:22:38.961Z,94642.40
2018-02-21T18:25:05.560Z,94641.42
2018-02-21T18:27:32.146Z,94632.14
2018-02-21T18:29:58.763Z,94626.98
2018-02-21T18:32:25.331Z,94624.69
2018-02-21T18:34:51.956Z,94633.69
2018-02-21T18:37:18.511Z,94640.22
2018-02-21T18:39:45.079Z,94647.06
2018-02-21T18:42:11.641Z,94644.05
2018-02-21T18:44:38.257Z,94638.41
2018-02-21T18:47:04.847Z,94644.45
2018-02-21T18:49:31.444Z,94637.78
2018-02-21T18:51:58.007Z,94640.50
2018-02-21T18:54:24.647Z,94639.85
2018-02-21T18:56:51.208Z,94640.11
2018-02-21T18:59:17.778Z,94637.90
2018-02-21T19:01:44.403Z,94635.22
2018-02-21T19:04:10.965Z,94638.19
2018-02-21T19:06:37.590Z,94635.11
2018-02-21T19:09:04.197Z,94634.31
2018-02-21T19:11:30.753Z,94628.58
2018-02-21T19:13:57.319Z,94634.86
2018-02-21T19:16:23.924Z,94634.71
2018-02-21T19:18:50.496Z,94638.59
2018-02-21T19:21:17.098Z,94634.89
2018-02-21T19:23:43.687Z,94638.52
2018-02-21T19:26:10.227Z,94636.23
2018-02-21T19:28:36.810Z,94637.06
2018-02-21T19:31:03.404Z,94637.47
2018-02-21T19:33:30.010Z,94628.98
2018-02-21T19:35:56.584Z,94631.95
2018-02-21T19:38:23.201Z,94635.44
2018-02-21T19:40:49.765Z,94630.18
2018-02-21T19:43:16.328Z,94630.11
2018-02-21T19:45:42.981Z,94633.59
2018-02-21T19:48:09.569Z,94632.14
2018-02-21T19:50:36.130Z,94634.64
2018-02-21T19:53:02.752Z,94633.48
2018-02-21T19:55:29.313Z,94640.55
2018-02-21T19:57:55.972Z,94638.81
2018-02-21T20:00:22.589Z,94637.75
2018-02-21T20:02:49.150Z,94633.88
2018-02-21T20:05:15.734Z,94624.09
2018-02-21T20:07:42.274Z,94626.63
2018-02-21T20:10:08.877Z,94627.82
2018-02-21T20:12:35.433Z,94628.95
2018-02-21T20:15:02.044Z,94628.36
2018-02-21T20:17:28.626Z,94626.52
2018-02-21T20:19:55.218Z,94634.83
2018-02-21T20:22:21.805Z,94635.37
2018-02-21T20:24:48.368Z,94640.59
2018-02-21T20:27:15.055Z,94645.16
2018-02-21T20:29:41.624Z,94637.91
2018-02-21T20:32:08.177Z,94642.36
2018-02-21T20:34:34.742Z,94640.38
2018-02-21T20:37:01.306Z,94639.39
2018-02-21T20:39:27.940Z,94636.45
2018-02-21T20:41:54.512Z,94632.44
2018-02-21T20:44:21.103Z,94634.06
2018-02-21T20:46:47.715Z,94628.95
2018-02-21T20:49:14.274Z,94632.44
2018-02-21T20:51:40.827Z,94624.67
2018-02-21T20:54:07.447Z,94626.56
2018-02-21T20:56:34.032Z,94628.80
2018-02-21T20:59:00.637Z,94631.23
2018-02-21T21:01:27.258Z,94634.42
2018-02-21T21:03:53.824Z,94634.57
2018-02-21T21:06:20.429Z,94633.81
2018-02-21T21:08:47.020Z,94633.27
2018-02-21T21:11:13.583Z,94636.74
2018-02-21T21:13:40.151Z,94634.93
2018-02-21T21:16:06.727Z,94634.45
2018-02-21T21:18:33.425Z,94630.80
2018-02-21T21:20:59.982Z,94628.56
2018-02-21T21:23:26.585Z,94631.22
2018-02-21T21:25:53.192Z,94617.16
2018-02-21T21:28:19.757Z,94618.98
2018-02-21T21:30:46.319Z,94617.06
2018-02-21T21:33:12.884Z,94615.14
2018-02-21T21:35:39.471Z,94616.80
2018-02-21T21:38:06.092Z,94616.16
2018-02-21T21:40:32.657Z,94620.06
2018-02-21T21:42:59.223Z,94619.02
2018-02-21T21:45:25.840Z,94617.67
2018-02-21T21:47:52.406Z,94614.41
2018-02-21T21:50:18.969Z,94613.11
2018-02-21T21:52:45.529Z,94619.37
2018-02-21T21:55:12.097Z,94619.73
2018-02-21T21:57:38.707Z,94619.95
2018-02-21T22:00:05.312Z,94623.83
2018-02-21T22:02:31.880Z,94626.02
2018-02-21T22:04:58.453Z,94625.83
2018-02-21T22:07:25.009Z,94623.25
2018-02-21T22:09:51.570Z,94624.02
2018-02-21T22:12:18.144Z,94620.31
2018-02-21T22:14:44.705Z,94609.39
2018-02-21T22:17:11.265Z,94615.95
2018-02-21T22:19:37.902Z,94620.92
2018-02-21T22:22:04.465Z,94612.19
2018-02-21T22:24:31.037Z,94606.81
2018-02-21T22:26:57.618Z,94600.94
2018-02-21T22:29:24.191Z,94598.62
2018-02-21T22:31:50.753Z,94596.69
2018-02-21T22:34:17.355Z,94599.95
2018-02-21T22:36:43.936Z,94603.19
2018-02-21T22:39:10.724Z,94603.19
2018-02-21T22:41:37.291Z,94609.64
2018-02-21T22:44:03.841Z,94605.12
2018-02-21T22:46:30.487Z,94601.14
2018-02-21T22:48:57.049Z,94610.45
2018-02-21T22:51:23.627Z,94608.03
2018-02-21T22:53:50.195Z,94610.81
2018-02-21T22:56:16.757Z,94607.73
2018-02-21T22:58:43.360Z,94605.78
2018-02-21T23:01:09.923Z,94608.03
2018-02-21T23:03:36.488Z,94608.72
2018-02-21T23:06:03.083Z,94600.81
2018-02-21T23:08:29.679Z,94594.11
2018-02-21T23:10:56.261Z,94599.91
2018-02-21T23:13:22.944Z,94600.81
2018-02-21T23:15:49.509Z,94598.45
2018-02-21T23:18:16.067Z,94595.52
2018-02-21T23:20:42.679Z,94597.52
2018-02-21T23:23:09.239Z,94592.69
2018-02-21T23:25:35.848Z,94602.08
2018-02-21T23:28:02.444Z,94591.50
2018-02-21T23:30:29.123Z,94595.66
2018-02-21T23:32:55.722Z,94593.53
2018-02-21T23:35:22.317Z,94590.34
2018-02-21T23:37:48.922Z,94592.09
2018-02-21T23:40:15.526Z,94586.72
2018-02-21T23:42:42.101Z,94586.53
2018-02-21T23:45:08.661Z,94578.27
2018-02-21T23:47:35.264Z,94584.04
2018-02-21T23:50:01.873Z,94577.11
2018-02-21T23:52:28.435Z,94582.48
2018-02-21T23:54:54.999Z,94581.75
2018-02-21T23:57:21.567Z,94583.57
2018-02-21T23:59:48.233Z,94579.83
